sensor_id;sensor_type;location;lat;lon;timestamp;pressure;altitude;pressure_sealevel;temperature
8533;BMP280;4304;53.876;10.662;2023-06-24T00:00:55;102260.25;;;15.10
8533;BMP280;4304;53.876;10.662;2023-06-24T00:03:20;102258.59;;;15.09
8533;BMP280;4304;53.876;10.662;2023-06-24T00:05:46;102257.09;;;15.05
8533;BMP280;4304;53.876;10.662;2023-06-24T00:08:18;102257.19;;;15.03
8533;BMP280;4304;53.876;10.662;2023-06-24T00:10:45;102253.91;;;15.00
8533;BMP280;4304;53.876;10.662;2023-06-24T00:13:12;102251.22;;;14.88
8533;BMP280;4304;53.876;10.662;2023-06-24T00:15:38;102248.44;;;14.91
8533;BMP280;4304;53.876;10.662;2023-06-24T00:18:08;102255.41;;;14.90
8533;BMP280;4304;53.876;10.662;2023-06-24T00:20:33;102251.03;;;14.91
8533;BMP280;4304;53.876;10.662;2023-06-24T00:22:59;102246.00;;;14.88
8533;BMP280;4304;53.876;10.662;2023-06-24T00:25:24;102257.47;;;14.85
8533;BMP280;4304;53.876;10.662;2023-06-24T00:27:49;102259.25;;;14.85
8533;BMP280;4304;53.876;10.662;2023-06-24T00:30:15;102256.81;;;14.82
8533;BMP280;4304;53.876;10.662;2023-06-24T00:32:40;102258.97;;;14.75
8533;BMP280;4304;53.876;10.662;2023-06-24T00:35:06;102258.31;;;14.72
8533;BMP280;4304;53.876;10.662;2023-06-24T00:37:31;102261.13;;;14.69
8533;BMP280;4304;53.876;10.662;2023-06-24T00:39:56;102257.75;;;14.67
8533;BMP280;4304;53.876;10.662;2023-06-24T00:42:22;102245.88;;;14.61
8533;BMP280;4304;53.876;10.662;2023-06-24T00:44:48;102259.25;;;14.57
8533;BMP280;4304;53.876;10.662;2023-06-24T00:47:13;102250.91;;;14.51
8533;BMP280;4304;53.876;10.662;2023-06-24T00:49:39;102259.16;;;14.45
8533;BMP280;4304;53.876;10.662;2023-06-24T00:52:04;102250.72;;;14.40
8533;BMP280;4304;53.876;10.662;2023-06-24T00:54:30;102243.63;;;14.42
8533;BMP280;4304;53.876;10.662;2023-06-24T00:56:57;102249.94;;;14.38
8533;BMP280;4304;53.876;10.662;2023-06-24T00:59:26;102258.94;;;14.34
8533;BMP280;4304;53.876;10.662;2023-06-24T01:01:54;102270.59;;;14.28
8533;BMP280;4304;53.876;10.662;2023-06-24T01:04:20;102263.09;;;14.22
8533;BMP280;4304;53.876;10.662;2023-06-24T01:06:46;102266.34;;;14.12
8533;BMP280;4304;53.876;10.662;2023-06-24T01:09:12;102263.91;;;14.09
8533;BMP280;4304;53.876;10.662;2023-06-24T01:11:38;102264.06;;;14.06
8533;BMP280;4304;53.876;10.662;2023-06-24T01:14:04;102266.91;;;14.02
8533;BMP280;4304;53.876;10.662;2023-06-24T01:22:15;102271.94;;;13.91
8533;BMP280;4304;53.876;10.662;2023-06-24T01:33:50;102289.22;;;13.78
8533;BMP280;4304;53.876;10.662;2023-06-24T01:36:20;102279.84;;;13.74
8533;BMP280;4304;53.876;10.662;2023-06-24T01:39:01;102280.97;;;13.70
8533;BMP280;4304;53.876;10.662;2023-06-24T01:41:32;102289.56;;;13.72
8533;BMP280;4304;53.876;10.662;2023-06-24T01:43:59;102296.63;;;13.70
8533;BMP280;4304;53.876;10.662;2023-06-24T01:46:28;102290.59;;;13.69
8533;BMP280;4304;53.876;10.662;2023-06-24T01:48:56;102297.47;;;13.70
8533;BMP280;4304;53.876;10.662;2023-06-24T01:51:23;102301.69;;;13.73
8533;BMP280;4304;53.876;10.662;2023-06-24T01:53:54;102290.06;;;13.63
8533;BMP280;4304;53.876;10.662;2023-06-24T01:56:25;102290.84;;;13.65
8533;BMP280;4304;53.876;10.662;2023-06-24T01:58:53;102299.25;;;13.70
8533;BMP280;4304;53.876;10.662;2023-06-24T02:01:20;102297.06;;;13.63
8533;BMP280;4304;53.876;10.662;2023-06-24T02:03:47;102300.63;;;13.62
8533;BMP280;4304;53.876;10.662;2023-06-24T02:06:13;102304.13;;;13.61
8533;BMP280;4304;53.876;10.662;2023-06-24T02:08:40;102301.69;;;13.58
8533;BMP280;4304;53.876;10.662;2023-06-24T02:11:07;102303.53;;;13.56
8533;BMP280;4304;53.876;10.662;2023-06-24T02:13:34;102301.22;;;13.51
8533;BMP280;4304;53.876;10.662;2023-06-24T02:16:01;102295.13;;;13.51
8533;BMP280;4304;53.876;10.662;2023-06-24T02:18:32;102295.28;;;13.48
8533;BMP280;4304;53.876;10.662;2023-06-24T02:20:59;102311.16;;;13.45
8533;BMP280;4304;53.876;10.662;2023-06-24T02:23:25;102312.22;;;13.41
8533;BMP280;4304;53.876;10.662;2023-06-24T02:25:51;102320.06;;;13.41
8533;BMP280;4304;53.876;10.662;2023-06-24T02:28:17;102319.38;;;13.37
8533;BMP280;4304;53.876;10.662;2023-06-24T02:30:43;102319.81;;;13.30
8533;BMP280;4304;53.876;10.662;2023-06-24T02:33:10;102333.41;;;13.20
8533;BMP280;4304;53.876;10.662;2023-06-24T02:35:37;102324.75;;;13.19
8533;BMP280;4304;53.876;10.662;2023-06-24T02:38:02;102320.19;;;13.23
8533;BMP280;4304;53.876;10.662;2023-06-24T02:40:28;102322.97;;;13.20
8533;BMP280;4304;53.876;10.662;2023-06-24T02:42:54;102328.03;;;13.23
8533;BMP280;4304;53.876;10.662;2023-06-24T02:45:20;102328.63;;;13.27
8533;BMP280;4304;53.876;10.662;2023-06-24T02:47:46;102328.56;;;13.29
8533;BMP280;4304;53.876;10.662;2023-06-24T02:50:12;102319.28;;;13.23
8533;BMP280;4304;53.876;10.662;2023-06-24T02:52:38;102326.78;;;13.29
8533;BMP280;4304;53.876;10.662;2023-06-24T02:55:05;102336.53;;;13.26
8533;BMP280;4304;53.876;10.662;2023-06-24T02:57:31;102337.56;;;13.23
8533;BMP280;4304;53.876;10.662;2023-06-24T02:59:57;102337.56;;;13.23
8533;BMP280;4304;53.876;10.662;2023-06-24T03:02:23;102332.66;;;13.18
8533;BMP280;4304;53.876;10.662;2023-06-24T03:04:50;102344.09;;;13.15
8533;BMP280;4304;53.876;10.662;2023-06-24T03:07:16;102337.13;;;13.16
8533;BMP280;4304;53.876;10.662;2023-06-24T03:09:46;102338.03;;;13.15
8533;BMP280;4304;53.876;10.662;2023-06-24T03:12:11;102331.91;;;13.16
8533;BMP280;4304;53.876;10.662;2023-06-24T03:14:37;102336.38;;;13.14
8533;BMP280;4304;53.876;10.662;2023-06-24T03:17:02;102334.44;;;13.17
8533;BMP280;4304;53.876;10.662;2023-06-24T03:19:28;102335.03;;;13.22
8533;BMP280;4304;53.876;10.662;2023-06-24T03:21:53;102339.06;;;13.27
8533;BMP280;4304;53.876;10.662;2023-06-24T03:24:19;102330.16;;;13.31
8533;BMP280;4304;53.876;10.662;2023-06-24T03:26:44;102336.97;;;13.34
8533;BMP280;4304;53.876;10.662;2023-06-24T03:29:09;102336.81;;;13.37
8533;BMP280;4304;53.876;10.662;2023-06-24T03:31:36;102330.56;;;13.39
8533;BMP280;4304;53.876;10.662;2023-06-24T03:34:01;102341.03;;;13.39
8533;BMP280;4304;53.876;10.662;2023-06-24T03:36:27;102340.88;;;13.42
8533;BMP280;4304;53.876;10.662;2023-06-24T03:38:52;102336.31;;;13.46
8533;BMP280;4304;53.876;10.662;2023-06-24T03:41:18;102343.84;;;13.52
8533;BMP280;4304;53.876;10.662;2023-06-24T03:43:43;102342.88;;;13.53
8533;BMP280;4304;53.876;10.662;2023-06-24T03:46:10;102333.03;;;13.58
8533;BMP280;4304;53.876;10.662;2023-06-24T03:48:35;102343.16;;;13.64
8533;BMP280;4304;53.876;10.662;2023-06-24T03:51:01;102335.84;;;13.70
8533;BMP280;4304;53.876;10.662;2023-06-24T03:53:26;102339.22;;;13.87
8533;BMP280;4304;53.876;10.662;2023-06-24T03:55:52;102349.59;;;14.04
8533;BMP280;4304;53.876;10.662;2023-06-24T03:58:17;102351.75;;;14.27
8533;BMP280;4304;53.876;10.662;2023-06-24T04:00:43;102338.47;;;14.45
8533;BMP280;4304;53.876;10.662;2023-06-24T04:03:09;102343.28;;;14.66
8533;BMP280;4304;53.876;10.662;2023-06-24T04:05:35;102343.41;;;14.93
8533;BMP280;4304;53.876;10.662;2023-06-24T04:08:01;102351.41;;;15.19
8533;BMP280;4304;53.876;10.662;2023-06-24T04:10:27;102353.47;;;15.41
8533;BMP280;4304;53.876;10.662;2023-06-24T04:12:53;102349.03;;;15.70
8533;BMP280;4304;53.876;10.662;2023-06-24T04:15:18;102346.25;;;15.85
8533;BMP280;4304;53.876;10.662;2023-06-24T04:17:43;102353.72;;;16.31
8533;BMP280;4304;53.876;10.662;2023-06-24T04:20:09;102356.44;;;16.68
8533;BMP280;4304;53.876;10.662;2023-06-24T04:22:39;102360.97;;;17.03
8533;BMP280;4304;53.876;10.662;2023-06-24T04:25:05;102351.09;;;17.07
8533;BMP280;4304;53.876;10.662;2023-06-24T04:27:31;102348.38;;;17.33
8533;BMP280;4304;53.876;10.662;2023-06-24T04:29:58;102352.03;;;17.55
8533;BMP280;4304;53.876;10.662;2023-06-24T04:32:23;102346.91;;;17.77
8533;BMP280;4304;53.876;10.662;2023-06-24T04:34:48;102346.72;;;18.03
8533;BMP280;4304;53.876;10.662;2023-06-24T04:37:14;102347.31;;;18.19
8533;BMP280;4304;53.876;10.662;2023-06-24T04:39:39;102341.38;;;18.62
8533;BMP280;4304;53.876;10.662;2023-06-24T04:42:05;102349.56;;;18.81
8533;BMP280;4304;53.876;10.662;2023-06-24T04:44:31;102347.81;;;18.92
8533;BMP280;4304;53.876;10.662;2023-06-24T04:46:56;102343.63;;;19.11
8533;BMP280;4304;53.876;10.662;2023-06-24T04:49:22;102345.81;;;19.28
8533;BMP280;4304;53.876;10.662;2023-06-24T04:51:47;102348.91;;;19.44
8533;BMP280;4304;53.876;10.662;2023-06-24T04:54:12;102351.56;;;19.44
8533;BMP280;4304;53.876;10.662;2023-06-24T04:56:39;102344.13;;;19.70
8533;BMP280;4304;53.876;10.662;2023-06-24T04:59:04;102357.06;;;19.52
8533;BMP280;4304;53.876;10.662;2023-06-24T05:01:29;102360.41;;;19.75
8533;BMP280;4304;53.876;10.662;2023-06-24T05:03:55;102359.97;;;20.13
8533;BMP280;4304;53.876;10.662;2023-06-24T05:06:20;102369.13;;;20.40
8533;BMP280;4304;53.876;10.662;2023-06-24T05:08:45;102358.47;;;20.30
8533;BMP280;4304;53.876;10.662;2023-06-24T05:11:11;102360.31;;;20.50
8533;BMP280;4304;53.876;10.662;2023-06-24T05:13:37;102341.88;;;20.70
8533;BMP280;4304;53.876;10.662;2023-06-24T05:16:02;102351.28;;;20.84
8533;BMP280;4304;53.876;10.662;2023-06-24T05:18:28;102361.59;;;20.66
8533;BMP280;4304;53.876;10.662;2023-06-24T05:20:53;102363.06;;;21.00
8533;BMP280;4304;53.876;10.662;2023-06-24T05:23:18;102343.00;;;20.98
8533;BMP280;4304;53.876;10.662;2023-06-24T05:25:44;102366.44;;;21.32
8533;BMP280;4304;53.876;10.662;2023-06-24T05:28:09;102359.25;;;21.13
8533;BMP280;4304;53.876;10.662;2023-06-24T05:30:34;102368.59;;;21.17
8533;BMP280;4304;53.876;10.662;2023-06-24T05:33:00;102356.34;;;21.16
8533;BMP280;4304;53.876;10.662;2023-06-24T05:35:25;102366.81;;;21.47
8533;BMP280;4304;53.876;10.662;2023-06-24T05:37:51;102369.59;;;21.85
8533;BMP280;4304;53.876;10.662;2023-06-24T05:40:16;102365.53;;;21.81
8533;BMP280;4304;53.876;10.662;2023-06-24T05:42:41;102372.09;;;21.96
8533;BMP280;4304;53.876;10.662;2023-06-24T05:45:07;102384.53;;;22.14
8533;BMP280;4304;53.876;10.662;2023-06-24T05:47:32;102377.16;;;22.18
8533;BMP280;4304;53.876;10.662;2023-06-24T05:49:58;102403.44;;;22.39
8533;BMP280;4304;53.876;10.662;2023-06-24T05:52:23;102391.16;;;22.48
8533;BMP280;4304;53.876;10.662;2023-06-24T05:54:49;102381.69;;;22.64
8533;BMP280;4304;53.876;10.662;2023-06-24T05:57:14;102405.06;;;23.16
8533;BMP280;4304;53.876;10.662;2023-06-24T05:59:40;102392.59;;;23.25
8533;BMP280;4304;53.876;10.662;2023-06-24T06:02:05;102401.59;;;23.15
8533;BMP280;4304;53.876;10.662;2023-06-24T06:04:30;102390.88;;;22.88
8533;BMP280;4304;53.876;10.662;2023-06-24T06:06:56;102385.72;;;22.77
8533;BMP280;4304;53.876;10.662;2023-06-24T06:09:22;102373.31;;;22.59
8533;BMP280;4304;53.876;10.662;2023-06-24T06:11:47;102370.22;;;22.35
8533;BMP280;4304;53.876;10.662;2023-06-24T06:14:13;102358.91;;;22.15
8533;BMP280;4304;53.876;10.662;2023-06-24T06:16:38;102365.34;;;21.73
8533;BMP280;4304;53.876;10.662;2023-06-24T06:19:04;102382.72;;;21.57
8533;BMP280;4304;53.876;10.662;2023-06-24T06:21:29;102379.84;;;21.69
8533;BMP280;4304;53.876;10.662;2023-06-24T06:23:55;102389.31;;;21.72
8533;BMP280;4304;53.876;10.662;2023-06-24T06:26:21;102381.09;;;21.65
8533;BMP280;4304;53.876;10.662;2023-06-24T06:28:46;102388.31;;;21.63
8533;BMP280;4304;53.876;10.662;2023-06-24T06:31:13;102381.38;;;21.42
8533;BMP280;4304;53.876;10.662;2023-06-24T06:33:39;102376.00;;;21.23
8533;BMP280;4304;53.876;10.662;2023-06-24T06:36:04;102366.88;;;21.37
8533;BMP280;4304;53.876;10.662;2023-06-24T06:38:30;102377.31;;;21.38
8533;BMP280;4304;53.876;10.662;2023-06-24T06:40:55;102387.34;;;21.35
8533;BMP280;4304;53.876;10.662;2023-06-24T06:43:21;102387.31;;;21.94
8533;BMP280;4304;53.876;10.662;2023-06-24T06:45:46;102388.78;;;22.73
8533;BMP280;4304;53.876;10.662;2023-06-24T06:48:12;102408.66;;;23.24
8533;BMP280;4304;53.876;10.662;2023-06-24T06:50:37;102413.03;;;23.16
8533;BMP280;4304;53.876;10.662;2023-06-24T06:53:03;102422.41;;;23.56
8533;BMP280;4304;53.876;10.662;2023-06-24T06:55:28;102415.66;;;23.70
8533;BMP280;4304;53.876;10.662;2023-06-24T06:57:54;102419.28;;;23.96
8533;BMP280;4304;53.876;10.662;2023-06-24T07:00:20;102433.53;;;24.04
8533;BMP280;4304;53.876;10.662;2023-06-24T07:02:45;102425.72;;;24.20
8533;BMP280;4304;53.876;10.662;2023-06-24T07:05:11;102439.59;;;24.41
8533;BMP280;4304;53.876;10.662;2023-06-24T07:07:39;102439.06;;;24.55
8533;BMP280;4304;53.876;10.662;2023-06-24T07:10:05;102471.47;;;25.53
8533;BMP280;4304;53.876;10.662;2023-06-24T07:12:30;102473.31;;;25.77
8533;BMP280;4304;53.876;10.662;2023-06-24T07:14:56;102494.25;;;26.39
8533;BMP280;4304;53.876;10.662;2023-06-24T07:17:21;102480.84;;;26.23
8533;BMP280;4304;53.876;10.662;2023-06-24T07:19:47;102461.38;;;25.89
8533;BMP280;4304;53.876;10.662;2023-06-24T07:22:13;102458.31;;;25.51
8533;BMP280;4304;53.876;10.662;2023-06-24T07:24:39;102467.78;;;25.46
8533;BMP280;4304;53.876;10.662;2023-06-24T07:27:05;102426.59;;;24.73
8533;BMP280;4304;53.876;10.662;2023-06-24T07:29:30;102445.63;;;25.20
8533;BMP280;4304;53.876;10.662;2023-06-24T07:31:56;102479.97;;;25.74
8533;BMP280;4304;53.876;10.662;2023-06-24T07:34:21;102482.50;;;25.33
8533;BMP280;4304;53.876;10.662;2023-06-24T07:36:46;102497.94;;;25.54
8533;BMP280;4304;53.876;10.662;2023-06-24T07:39:12;102496.56;;;25.68
8533;BMP280;4304;53.876;10.662;2023-06-24T07:41:37;102501.03;;;25.92
8533;BMP280;4304;53.876;10.662;2023-06-24T07:44:02;102514.44;;;26.08
8533;BMP280;4304;53.876;10.662;2023-06-24T07:46:28;102490.94;;;25.71
8533;BMP280;4304;53.876;10.662;2023-06-24T07:48:54;102498.41;;;26.00
8533;BMP280;4304;53.876;10.662;2023-06-24T07:51:19;102477.72;;;25.94
8533;BMP280;4304;53.876;10.662;2023-06-24T07:53:44;102483.28;;;26.09
8533;BMP280;4304;53.876;10.662;2023-06-24T07:56:10;102474.97;;;26.12
8533;BMP280;4304;53.876;10.662;2023-06-24T07:58:35;102527.66;;;26.18
8533;BMP280;4304;53.876;10.662;2023-06-24T08:01:03;102491.84;;;25.87
8533;BMP280;4304;53.876;10.662;2023-06-24T08:03:29;102482.97;;;25.53
8533;BMP280;4304;53.876;10.662;2023-06-24T08:05:54;102535.66;;;26.18
8533;BMP280;4304;53.876;10.662;2023-06-24T08:08:20;102523.25;;;25.76
8533;BMP280;4304;53.876;10.662;2023-06-24T08:10:46;102463.13;;;25.48
8533;BMP280;4304;53.876;10.662;2023-06-24T08:13:11;102475.41;;;25.66
8533;BMP280;4304;53.876;10.662;2023-06-24T08:15:36;102509.94;;;25.50
8533;BMP280;4304;53.876;10.662;2023-06-24T08:18:02;102460.41;;;25.40
8533;BMP280;4304;53.876;10.662;2023-06-24T08:20:27;102479.16;;;25.56
8533;BMP280;4304;53.876;10.662;2023-06-24T08:22:53;102472.59;;;25.68
8533;BMP280;4304;53.876;10.662;2023-06-24T08:25:37;102428.84;;;25.70
8533;BMP280;4304;53.876;10.662;2023-06-24T08:31:24;102474.19;;;26.19
8533;BMP280;4304;53.876;10.662;2023-06-24T08:33:52;102469.66;;;26.20
8533;BMP280;4304;53.876;10.662;2023-06-24T08:36:19;102485.72;;;26.35
8533;BMP280;4304;53.876;10.662;2023-06-24T08:38:44;102503.81;;;26.65
8533;BMP280;4304;53.876;10.662;2023-06-24T08:41:09;102542.00;;;26.65
8533;BMP280;4304;53.876;10.662;2023-06-24T08:43:35;102434.44;;;26.49
8533;BMP280;4304;53.876;10.662;2023-06-24T08:46:00;102442.78;;;26.78
8533;BMP280;4304;53.876;10.662;2023-06-24T08:48:26;102455.50;;;26.92
8533;BMP280;4304;53.876;10.662;2023-06-24T08:50:56;102459.00;;;26.92
8533;BMP280;4304;53.876;10.662;2023-06-24T08:53:24;102431.28;;;26.77
8533;BMP280;4304;53.876;10.662;2023-06-24T08:55:53;102421.75;;;26.27
8533;BMP280;4304;53.876;10.662;2023-06-24T08:58:19;102426.25;;;26.43
8533;BMP280;4304;53.876;10.662;2023-06-24T09:00:45;102397.91;;;26.50
8533;BMP280;4304;53.876;10.662;2023-06-24T09:03:10;102439.25;;;26.38
8533;BMP280;4304;53.876;10.662;2023-06-24T09:05:36;102453.25;;;26.40
8533;BMP280;4304;53.876;10.662;2023-06-24T09:08:01;102402.75;;;26.38
8533;BMP280;4304;53.876;10.662;2023-06-24T09:10:31;102421.75;;;26.51
8533;BMP280;4304;53.876;10.662;2023-06-24T09:13:00;102465.63;;;26.64
8533;BMP280;4304;53.876;10.662;2023-06-24T09:15:29;102430.59;;;26.60
8533;BMP280;4304;53.876;10.662;2023-06-24T09:17:55;102430.75;;;26.34
8533;BMP280;4304;53.876;10.662;2023-06-24T09:20:20;102440.44;;;26.51
8533;BMP280;4304;53.876;10.662;2023-06-24T09:22:48;102430.06;;;25.83
8533;BMP280;4304;53.876;10.662;2023-06-24T09:25:17;102429.38;;;26.30
8533;BMP280;4304;53.876;10.662;2023-06-24T09:27:47;102422.44;;;26.37
8533;BMP280;4304;53.876;10.662;2023-06-24T09:30:22;102436.13;;;26.66
8533;BMP280;4304;53.876;10.662;2023-06-24T09:32:48;102479.47;;;26.68
8533;BMP280;4304;53.876;10.662;2023-06-24T09:35:14;102462.25;;;26.47
8533;BMP280;4304;53.876;10.662;2023-06-24T09:37:41;102431.59;;;26.43
8533;BMP280;4304;53.876;10.662;2023-06-24T09:40:07;102431.28;;;26.46
8533;BMP280;4304;53.876;10.662;2023-06-24T09:42:35;102470.88;;;26.90
8533;BMP280;4304;53.876;10.662;2023-06-24T09:45:05;102481.69;;;27.04
8533;BMP280;4304;53.876;10.662;2023-06-24T09:47:31;102523.75;;;27.18
8533;BMP280;4304;53.876;10.662;2023-06-24T09:49:56;102502.00;;;26.73
8533;BMP280;4304;53.876;10.662;2023-06-24T09:52:22;102494.03;;;26.89
8533;BMP280;4304;53.876;10.662;2023-06-24T09:54:51;102459.63;;;26.63
8533;BMP280;4304;53.876;10.662;2023-06-24T09:57:24;102428.63;;;26.77
8533;BMP280;4304;53.876;10.662;2023-06-24T09:59:51;102519.56;;;27.00
8533;BMP280;4304;53.876;10.662;2023-06-24T10:02:18;102456.13;;;27.25
8533;BMP280;4304;53.876;10.662;2023-06-24T10:04:44;102455.28;;;26.77
8533;BMP280;4304;53.876;10.662;2023-06-24T10:07:12;102457.16;;;27.01
8533;BMP280;4304;53.876;10.662;2023-06-24T10:09:39;102459.59;;;27.65
8533;BMP280;4304;53.876;10.662;2023-06-24T10:12:05;102491.16;;;27.38
8533;BMP280;4304;53.876;10.662;2023-06-24T10:14:31;102449.31;;;27.31
8533;BMP280;4304;53.876;10.662;2023-06-24T10:17:05;102448.03;;;27.73
8533;BMP280;4304;53.876;10.662;2023-06-24T10:19:40;102503.25;;;27.96
8533;BMP280;4304;53.876;10.662;2023-06-24T10:22:09;102446.63;;;27.31
8533;BMP280;4304;53.876;10.662;2023-06-24T10:24:40;102428.91;;;27.38
8533;BMP280;4304;53.876;10.662;2023-06-24T10:27:17;102514.53;;;27.68
8533;BMP280;4304;53.876;10.662;2023-06-24T10:29:48;102481.81;;;27.50
8533;BMP280;4304;53.876;10.662;2023-06-24T10:32:13;102451.28;;;27.37
8533;BMP280;4304;53.876;10.662;2023-06-24T10:34:40;102485.50;;;27.33
8533;BMP280;4304;53.876;10.662;2023-06-24T10:37:23;102461.63;;;27.40
8533;BMP280;4304;53.876;10.662;2023-06-24T10:39:52;102463.13;;;27.42
8533;BMP280;4304;53.876;10.662;2023-06-24T10:44:45;102428.75;;;27.93
8533;BMP280;4304;53.876;10.662;2023-06-24T10:47:11;102431.13;;;27.88
8533;BMP280;4304;53.876;10.662;2023-06-24T10:49:36;102459.00;;;27.86
8533;BMP280;4304;53.876;10.662;2023-06-24T10:52:22;102412.66;;;28.09
8533;BMP280;4304;53.876;10.662;2023-06-24T10:55:45;102398.38;;;28.24
8533;BMP280;4304;53.876;10.662;2023-06-24T10:58:37;102396.44;;;28.10
8533;BMP280;4304;53.876;10.662;2023-06-24T11:01:34;102395.31;;;28.49
8533;BMP280;4304;53.876;10.662;2023-06-24T11:07:18;102352.34;;;28.29
8533;BMP280;4304;53.876;10.662;2023-06-24T11:09:55;102402.53;;;28.49
8533;BMP280;4304;53.876;10.662;2023-06-24T11:12:53;102379.63;;;28.46
8533;BMP280;4304;53.876;10.662;2023-06-24T11:16:29;102398.78;;;28.80
8533;BMP280;4304;53.876;10.662;2023-06-24T11:19:57;102359.16;;;28.09
8533;BMP280;4304;53.876;10.662;2023-06-24T11:22:49;102383.69;;;28.42
8533;BMP280;4304;53.876;10.662;2023-06-24T11:25:54;102388.78;;;27.99
8533;BMP280;4304;53.876;10.662;2023-06-24T11:28:43;102325.28;;;27.71
8533;BMP280;4304;53.876;10.662;2023-06-24T11:35:47;102368.47;;;27.52
8533;BMP280;4304;53.876;10.662;2023-06-24T11:38:42;102322.34;;;28.41
8533;BMP280;4304;53.876;10.662;2023-06-24T11:41:07;102402.63;;;28.63
8533;BMP280;4304;53.876;10.662;2023-06-24T11:43:33;102360.88;;;28.32
8533;BMP280;4304;53.876;10.662;2023-06-24T11:45:58;102351.22;;;28.68
8533;BMP280;4304;53.876;10.662;2023-06-24T11:48:28;102334.19;;;28.61
8533;BMP280;4304;53.876;10.662;2023-06-24T11:50:53;102342.13;;;28.54
8533;BMP280;4304;53.876;10.662;2023-06-24T11:53:30;102325.00;;;28.19
8533;BMP280;4304;53.876;10.662;2023-06-24T11:55:56;102317.25;;;28.01
8533;BMP280;4304;53.876;10.662;2023-06-24T11:58:21;102322.47;;;27.95
8533;BMP280;4304;53.876;10.662;2023-06-24T12:00:48;102298.06;;;28.06
8533;BMP280;4304;53.876;10.662;2023-06-24T12:03:14;102281.88;;;27.99
8533;BMP280;4304;53.876;10.662;2023-06-24T12:05:39;102339.66;;;28.00
8533;BMP280;4304;53.876;10.662;2023-06-24T12:08:10;102290.75;;;27.70
8533;BMP280;4304;53.876;10.662;2023-06-24T12:10:37;102315.13;;;27.97
8533;BMP280;4304;53.876;10.662;2023-06-24T12:13:04;102280.16;;;27.76
8533;BMP280;4304;53.876;10.662;2023-06-24T12:15:33;102299.06;;;27.97
8533;BMP280;4304;53.876;10.662;2023-06-24T12:17:59;102306.56;;;28.09
8533;BMP280;4304;53.876;10.662;2023-06-24T12:20:25;102304.22;;;28.06
8533;BMP280;4304;53.876;10.662;2023-06-24T12:22:51;102280.88;;;27.70
8533;BMP280;4304;53.876;10.662;2023-06-24T12:25:17;102253.72;;;27.29
8533;BMP280;4304;53.876;10.662;2023-06-24T12:27:43;102275.19;;;27.35
8533;BMP280;4304;53.876;10.662;2023-06-24T12:30:10;102276.09;;;27.20
8533;BMP280;4304;53.876;10.662;2023-06-24T12:32:35;102246.50;;;27.37
8533;BMP280;4304;53.876;10.662;2023-06-24T12:35:01;102257.53;;;27.34
8533;BMP280;4304;53.876;10.662;2023-06-24T12:37:31;102244.38;;;27.25
8533;BMP280;4304;53.876;10.662;2023-06-24T12:39:57;102232.59;;;27.11
8533;BMP280;4304;53.876;10.662;2023-06-24T12:42:23;102237.31;;;27.02
8533;BMP280;4304;53.876;10.662;2023-06-24T12:44:48;102236.41;;;27.09
8533;BMP280;4304;53.876;10.662;2023-06-24T12:47:13;102286.81;;;27.12
8533;BMP280;4304;53.876;10.662;2023-06-24T12:49:39;102277.06;;;27.27
8533;BMP280;4304;53.876;10.662;2023-06-24T12:52:04;102291.81;;;27.07
8533;BMP280;4304;53.876;10.662;2023-06-24T12:54:29;102275.06;;;26.75
8533;BMP280;4304;53.876;10.662;2023-06-24T12:56:54;102261.41;;;26.70
8533;BMP280;4304;53.876;10.662;2023-06-24T12:59:20;102244.53;;;26.62
8533;BMP280;4304;53.876;10.662;2023-06-24T13:01:45;102252.19;;;26.88
8533;BMP280;4304;53.876;10.662;2023-06-24T13:04:11;102269.66;;;27.07
8533;BMP280;4304;53.876;10.662;2023-06-24T13:06:36;102240.88;;;26.86
8533;BMP280;4304;53.876;10.662;2023-06-24T13:09:02;102248.34;;;26.91
8533;BMP280;4304;53.876;10.662;2023-06-24T13:11:27;102275.22;;;26.81
8533;BMP280;4304;53.876;10.662;2023-06-24T13:13:53;102269.53;;;26.92
8533;BMP280;4304;53.876;10.662;2023-06-24T13:16:18;102273.88;;;26.77
8533;BMP280;4304;53.876;10.662;2023-06-24T13:18:43;102277.75;;;26.51
8533;BMP280;4304;53.876;10.662;2023-06-24T13:21:09;102270.22;;;26.86
8533;BMP280;4304;53.876;10.662;2023-06-24T13:23:35;102281.53;;;26.72
8533;BMP280;4304;53.876;10.662;2023-06-24T13:26:02;102249.22;;;26.52
8533;BMP280;4304;53.876;10.662;2023-06-24T13:28:28;102275.53;;;26.78
8533;BMP280;4304;53.876;10.662;2023-06-24T13:30:53;102282.19;;;26.98
8533;BMP280;4304;53.876;10.662;2023-06-24T13:33:19;102300.56;;;27.47
8533;BMP280;4304;53.876;10.662;2023-06-24T13:35:45;102311.09;;;27.33
8533;BMP280;4304;53.876;10.662;2023-06-24T13:38:10;102273.13;;;27.07
8533;BMP280;4304;53.876;10.662;2023-06-24T13:40:37;102274.53;;;26.95
8533;BMP280;4304;53.876;10.662;2023-06-24T13:43:03;102285.41;;;26.62
8533;BMP280;4304;53.876;10.662;2023-06-24T13:45:28;102251.94;;;26.36
8533;BMP280;4304;53.876;10.662;2023-06-24T13:47:53;102238.78;;;26.34
8533;BMP280;4304;53.876;10.662;2023-06-24T13:50:20;102264.25;;;26.45
8533;BMP280;4304;53.876;10.662;2023-06-24T13:52:45;102254.59;;;26.36
8533;BMP280;4304;53.876;10.662;2023-06-24T13:55:11;102230.59;;;26.36
8533;BMP280;4304;53.876;10.662;2023-06-24T13:57:36;102218.91;;;26.45
8533;BMP280;4304;53.876;10.662;2023-06-24T14:00:02;102249.38;;;26.58
8533;BMP280;4304;53.876;10.662;2023-06-24T14:02:28;102219.53;;;26.70
8533;BMP280;4304;53.876;10.662;2023-06-24T14:04:54;102233.53;;;26.88
8533;BMP280;4304;53.876;10.662;2023-06-24T14:07:19;102225.81;;;27.01
8533;BMP280;4304;53.876;10.662;2023-06-24T14:09:44;102233.19;;;27.29
8533;BMP280;4304;53.876;10.662;2023-06-24T14:12:10;102271.47;;;27.52
8533;BMP280;4304;53.876;10.662;2023-06-24T14:14:36;102260.81;;;27.52
8533;BMP280;4304;53.876;10.662;2023-06-24T14:17:06;102259.13;;;27.13
8533;BMP280;4304;53.876;10.662;2023-06-24T14:19:34;102252.44;;;27.09
8533;BMP280;4304;53.876;10.662;2023-06-24T14:22:00;102241.59;;;27.10
8533;BMP280;4304;53.876;10.662;2023-06-24T14:24:25;102234.78;;;27.08
8533;BMP280;4304;53.876;10.662;2023-06-24T14:26:51;102213.44;;;27.08
8533;BMP280;4304;53.876;10.662;2023-06-24T14:29:16;102232.59;;;27.11
8533;BMP280;4304;53.876;10.662;2023-06-24T14:31:41;102235.47;;;27.02
8533;BMP280;4304;53.876;10.662;2023-06-24T14:34:07;102209.00;;;27.23
8533;BMP280;4304;53.876;10.662;2023-06-24T14:36:32;102221.44;;;27.38
8533;BMP280;4304;53.876;10.662;2023-06-24T14:38:57;102264.81;;;27.40